sensor_id;sensor_type;location;lat;lon;timestamp;pressure;altitude;pressure_sealevel;temperature;humidity
57900;BME280;60605;53.716;19.940;2023-05-02T00:01:18;100204.17;;;8.37;64.64
57900;BME280;60605;53.716;19.940;2023-05-02T00:06:21;100203.48;;;8.31;65.10
57900;BME280;60605;53.716;19.940;2023-05-02T00:11:24;100200.42;;;8.27;65.49
57900;BME280;60605;53.716;19.940;2023-05-02T00:16:27;100198.42;;;8.28;66.25
57900;BME280;60605;53.716;19.940;2023-05-02T00:21:31;100190.65;;;8.33;66.55
57900;BME280;60605;53.716;19.940;2023-05-02T00:26:34;100183.86;;;8.43;66.48
57900;BME280;60605;53.716;19.940;2023-05-02T00:31:41;100178.02;;;8.52;66.35
57900;BME280;60605;53.716;19.940;2023-05-02T00:36:45;100173.52;;;8.58;66.15
57900;BME280;60605;53.716;19.940;2023-05-02T00:41:48;100166.09;;;8.62;66.11
57900;BME280;60605;53.716;19.940;2023-05-02T00:46:51;100157.20;;;8.63;66.16
57900;BME280;60605;53.716;19.940;2023-05-02T00:51:55;100150.14;;;8.61;66.14
57900;BME280;60605;53.716;19.940;2023-05-02T00:56:58;100142.38;;;8.58;66.45
57900;BME280;60605;53.716;19.940;2023-05-02T01:02:04;100136.80;;;8.57;66.71
57900;BME280;60605;53.716;19.940;2023-05-02T01:12:53;100122.66;;;8.54;67.51
57900;BME280;60605;53.716;19.940;2023-05-02T01:17:59;100118.95;;;8.54;67.64
57900;BME280;60605;53.716;19.940;2023-05-02T01:23:05;100113.79;;;8.54;68.29
57900;BME280;60605;53.716;19.940;2023-05-02T01:28:20;100111.30;;;8.57;68.54
57900;BME280;60605;53.716;19.940;2023-05-02T01:33:25;100107.08;;;8.62;68.44
57900;BME280;60605;53.716;19.940;2023-05-02T01:38:30;100101.30;;;8.65;68.31
57900;BME280;60605;53.716;19.940;2023-05-02T01:43:34;100100.60;;;8.65;68.13
57900;BME280;60605;53.716;19.940;2023-05-02T01:48:40;100093.80;;;8.63;67.89
57900;BME280;60605;53.716;19.940;2023-05-02T01:53:46;100083.44;;;8.62;68.10
57900;BME280;60605;53.716;19.940;2023-05-02T01:58:51;100076.34;;;8.60;68.30
57900;BME280;60605;53.716;19.940;2023-05-02T02:03:56;100068.86;;;8.56;68.15
57900;BME280;60605;53.716;19.940;2023-05-02T02:09:00;100068.50;;;8.52;68.29
57900;BME280;60605;53.716;19.940;2023-05-02T02:14:06;100064.73;;;8.51;68.94
57900;BME280;60605;53.716;19.940;2023-05-02T02:19:14;100061.90;;;8.51;68.83
57900;BME280;60605;53.716;19.940;2023-05-02T02:24:17;100055.78;;;8.46;68.75
57900;BME280;60605;53.716;19.940;2023-05-02T02:29:22;100057.16;;;8.41;69.07
57900;BME280;60605;53.716;19.940;2023-05-02T02:34:26;100064.56;;;8.34;69.20
57900;BME280;60605;53.716;19.940;2023-05-02T02:44:55;100059.42;;;8.06;69.76
57900;BME280;60605;53.716;19.940;2023-05-02T02:55:27;100056.72;;;7.87;70.71
57900;BME280;60605;53.716;19.940;2023-05-02T03:00:32;100053.83;;;7.80;71.00
57900;BME280;60605;53.716;19.940;2023-05-02T03:05:36;100050.13;;;7.72;71.34
57900;BME280;60605;53.716;19.940;2023-05-02T03:10:40;100049.09;;;7.66;71.80
57900;BME280;60605;53.716;19.940;2023-05-02T03:20:58;100049.23;;;7.59;72.87
57900;BME280;60605;53.716;19.940;2023-05-02T03:26:02;100052.68;;;7.60;73.36
57900;BME280;60605;53.716;19.940;2023-05-02T03:31:05;100050.02;;;7.69;74.15
57900;BME280;60605;53.716;19.940;2023-05-02T03:36:09;100053.73;;;7.87;74.12
57900;BME280;60605;53.716;19.940;2023-05-02T03:41:15;100060.46;;;8.02;74.13
57900;BME280;60605;53.716;19.940;2023-05-02T03:46:18;100059.66;;;8.20;73.89
57900;BME280;60605;53.716;19.940;2023-05-02T03:51:22;100047.14;;;8.41;73.51
57900;BME280;60605;53.716;19.940;2023-05-02T03:56:25;100049.27;;;8.65;73.04
57900;BME280;60605;53.716;19.940;2023-05-02T04:01:28;100052.12;;;8.91;72.32
57900;BME280;60605;53.716;19.940;2023-05-02T04:06:31;100049.60;;;9.24;71.79
57900;BME280;60605;53.716;19.940;2023-05-02T04:11:35;100051.75;;;9.67;70.99
57900;BME280;60605;53.716;19.940;2023-05-02T04:16:38;100047.10;;;10.04;69.84
57900;BME280;60605;53.716;19.940;2023-05-02T04:21:41;100049.70;;;10.26;69.00
57900;BME280;60605;53.716;19.940;2023-05-02T04:26:44;100044.81;;;10.43;68.48
57900;BME280;60605;53.716;19.940;2023-05-02T04:31:50;100049.94;;;10.58;67.92
57900;BME280;60605;53.716;19.940;2023-05-02T04:36:54;100050.29;;;10.75;67.40
57900;BME280;60605;53.716;19.940;2023-05-02T04:41:56;100051.33;;;10.96;66.96
57900;BME280;60605;53.716;19.940;2023-05-02T04:47:00;100054.52;;;11.68;66.28
57900;BME280;60605;53.716;19.940;2023-05-02T04:52:03;100048.95;;;12.70;63.92
57900;BME280;60605;53.716;19.940;2023-05-02T04:57:06;100051.00;;;13.26;61.74
57900;BME280;60605;53.716;19.940;2023-05-02T05:02:11;100056.34;;;13.51;60.82
57900;BME280;60605;53.716;19.940;2023-05-02T05:07:15;100054.27;;;14.05;60.05
57900;BME280;60605;53.716;19.940;2023-05-02T05:12:18;100056.46;;;14.92;57.83
57900;BME280;60605;53.716;19.940;2023-05-02T05:17:21;100053.84;;;15.63;55.85
57900;BME280;60605;53.716;19.940;2023-05-02T05:22:25;100056.49;;;15.83;54.81
57900;BME280;60605;53.716;19.940;2023-05-02T05:27:28;100054.34;;;15.92;54.38
57900;BME280;60605;53.716;19.940;2023-05-02T05:32:34;100059.91;;;15.89;54.14
57900;BME280;60605;53.716;19.940;2023-05-02T05:37:38;100068.52;;;15.70;54.36
57900;BME280;60605;53.716;19.940;2023-05-02T05:42:41;100071.33;;;15.45;54.64
57900;BME280;60605;53.716;19.940;2023-05-02T05:47:44;100066.52;;;15.22;55.21
57900;BME280;60605;53.716;19.940;2023-05-02T05:52:48;100072.36;;;15.05;56.32
57900;BME280;60605;53.716;19.940;2023-05-02T05:57:51;100072.98;;;14.81;56.58
57900;BME280;60605;53.716;19.940;2023-05-02T06:02:54;100077.60;;;14.65;57.22
57900;BME280;60605;53.716;19.940;2023-05-02T06:07:58;100070.08;;;14.91;57.77
57900;BME280;60605;53.716;19.940;2023-05-02T06:13:01;100067.92;;;15.72;57.24
57900;BME280;60605;53.716;19.940;2023-05-02T06:18:04;100075.91;;;16.86;56.07
57900;BME280;60605;53.716;19.940;2023-05-02T06:23:08;100087.65;;;17.82;53.17
57900;BME280;60605;53.716;19.940;2023-05-02T06:28:12;100088.35;;;18.45;50.75
57900;BME280;60605;53.716;19.940;2023-05-02T06:33:16;100091.80;;;18.61;49.14
57900;BME280;60605;53.716;19.940;2023-05-02T06:38:20;100089.84;;;18.60;48.87
57900;BME280;60605;53.716;19.940;2023-05-02T06:43:24;100096.48;;;18.71;49.13
57900;BME280;60605;53.716;19.940;2023-05-02T06:48:27;100102.02;;;18.69;49.40
57900;BME280;60605;53.716;19.940;2023-05-02T06:53:31;100115.46;;;18.40;49.25
57900;BME280;60605;53.716;19.940;2023-05-02T06:58:34;100117.52;;;17.94;49.77
57900;BME280;60605;53.716;19.940;2023-05-02T07:03:38;100124.30;;;17.47;49.79
57900;BME280;60605;53.716;19.940;2023-05-02T07:08:43;100130.30;;;17.04;50.56
57900;BME280;60605;53.716;19.940;2023-05-02T07:13:47;100135.29;;;16.76;51.98
57900;BME280;60605;53.716;19.940;2023-05-02T07:18:50;100136.42;;;16.63;52.38
57900;BME280;60605;53.716;19.940;2023-05-02T07:23:55;100141.08;;;16.59;52.34
57900;BME280;60605;53.716;19.940;2023-05-02T07:29:00;100148.77;;;16.58;52.55
57900;BME280;60605;53.716;19.940;2023-05-02T07:34:05;100160.55;;;16.41;52.41
57900;BME280;60605;53.716;19.940;2023-05-02T07:39:09;100164.95;;;16.19;53.07
57900;BME280;60605;53.716;19.940;2023-05-02T07:44:12;100169.42;;;15.92;53.89
57900;BME280;60605;53.716;19.940;2023-05-02T07:49:15;100166.88;;;15.63;54.47
57900;BME280;60605;53.716;19.940;2023-05-02T07:54:19;100167.20;;;15.30;55.45
57900;BME280;60605;53.716;19.940;2023-05-02T07:59:22;100172.36;;;15.15;56.59
57900;BME280;60605;53.716;19.940;2023-05-02T08:04:26;100176.61;;;15.10;57.31
57900;BME280;60605;53.716;19.940;2023-05-02T08:09:29;100183.11;;;15.08;57.72
57900;BME280;60605;53.716;19.940;2023-05-02T08:14:32;100193.05;;;15.16;58.05
57900;BME280;60605;53.716;19.940;2023-05-02T08:19:36;100206.98;;;15.25;58.20
57900;BME280;60605;53.716;19.940;2023-05-02T08:24:39;100213.69;;;15.50;58.10
57900;BME280;60605;53.716;19.940;2023-05-02T08:29:43;100218.48;;;15.86;57.94
57900;BME280;60605;53.716;19.940;2023-05-02T08:34:46;100226.60;;;16.37;57.85
57900;BME280;60605;53.716;19.940;2023-05-02T08:39:49;100223.70;;;16.93;56.75
57900;BME280;60605;53.716;19.940;2023-05-02T08:44:52;100225.65;;;17.29;55.32
57900;BME280;60605;53.716;19.940;2023-05-02T08:49:55;100232.87;;;17.30;54.98
57900;BME280;60605;53.716;19.940;2023-05-02T08:54:59;100241.35;;;17.18;55.54
57900;BME280;60605;53.716;19.940;2023-05-02T09:00:04;100247.55;;;16.94;55.67
57900;BME280;60605;53.716;19.940;2023-05-02T09:05:11;100250.04;;;16.70;56.31
57900;BME280;60605;53.716;19.940;2023-05-02T09:10:21;100256.80;;;16.57;56.94
57900;BME280;60605;53.716;19.940;2023-05-02T09:15:26;100259.77;;;16.45;57.62
57900;BME280;60605;53.716;19.940;2023-05-02T09:20:30;100267.96;;;16.25;58.39
57900;BME280;60605;53.716;19.940;2023-05-02T09:25:41;100269.91;;;16.00;59.50
57900;BME280;60605;53.716;19.940;2023-05-02T09:30:45;100269.29;;;15.64;60.99
57900;BME280;60605;53.716;19.940;2023-05-02T09:35:53;100263.29;;;15.21;62.61
57900;BME280;60605;53.716;19.940;2023-05-02T09:40:57;100266.13;;;14.87;63.99
57900;BME280;60605;53.716;19.940;2023-05-02T09:46:02;100262.98;;;14.74;65.25
57900;BME280;60605;53.716;19.940;2023-05-02T09:51:06;100266.88;;;14.87;65.57
57900;BME280;60605;53.716;19.940;2023-05-02T09:56:18;100265.30;;;15.19;65.50
57900;BME280;60605;53.716;19.940;2023-05-02T10:01:21;100269.91;;;15.45;64.53
57900;BME280;60605;53.716;19.940;2023-05-02T10:06:25;100271.02;;;15.64;63.64
57900;BME280;60605;53.716;19.940;2023-05-02T10:11:29;100279.08;;;15.92;64.01
57900;BME280;60605;53.716;19.940;2023-05-02T10:16:35;100292.37;;;16.31;64.24
57900;BME280;60605;53.716;19.940;2023-05-02T10:21:39;100296.93;;;16.79;63.57
57900;BME280;60605;53.716;19.940;2023-05-02T10:26:42;100301.59;;;17.48;62.42
57900;BME280;60605;53.716;19.940;2023-05-02T10:31:46;100308.77;;;18.22;60.11
57900;BME280;60605;53.716;19.940;2023-05-02T10:36:51;100317.91;;;18.75;58.90
57900;BME280;60605;53.716;19.940;2023-05-02T10:41:54;100317.83;;;19.18;56.86
57900;BME280;60605;53.716;19.940;2023-05-02T10:46:59;100320.86;;;19.81;56.66
57900;BME280;60605;53.716;19.940;2023-05-02T10:52:23;100327.54;;;20.67;54.77
57900;BME280;60605;53.716;19.940;2023-05-02T10:57:26;100329.75;;;21.29;51.23
57900;BME280;60605;53.716;19.940;2023-05-02T11:07:36;100329.20;;;22.01;46.66
57900;BME280;60605;53.716;19.940;2023-05-02T11:33:40;100344.14;;;23.02;43.18
57900;BME280;60605;53.716;19.940;2023-05-02T11:38:43;100342.59;;;23.24;41.91
57900;BME280;60605;53.716;19.940;2023-05-02T11:43:46;100348.66;;;23.22;40.65
57900;BME280;60605;53.716;19.940;2023-05-02T11:48:49;100343.45;;;23.09;40.23
57900;BME280;60605;53.716;19.940;2023-05-02T11:53:52;100349.51;;;23.12;41.45
57900;BME280;60605;53.716;19.940;2023-05-02T11:58:57;100358.94;;;23.34;40.35
57900;BME280;60605;53.716;19.940;2023-05-02T12:04:05;100366.88;;;23.32;39.70
57900;BME280;60605;53.716;19.940;2023-05-02T12:09:12;100368.44;;;22.67;39.45
57900;BME280;60605;53.716;19.940;2023-05-02T12:14:16;100376.79;;;21.81;40.82
57900;BME280;60605;53.716;19.940;2023-05-02T12:19:19;100382.82;;;21.48;41.53
57900;BME280;60605;53.716;19.940;2023-05-02T12:24:29;100386.45;;;21.24;41.57
57900;BME280;60605;53.716;19.940;2023-05-02T12:29:37;100388.31;;;21.06;41.51
57900;BME280;60605;53.716;19.940;2023-05-02T12:34:41;100393.33;;;20.99;42.25
57900;BME280;60605;53.716;19.940;2023-05-02T12:39:44;100395.42;;;20.92;42.25
57900;BME280;60605;53.716;19.940;2023-05-02T12:44:48;100398.90;;;20.90;42.61
57900;BME280;60605;53.716;19.940;2023-05-02T12:49:54;100402.63;;;20.91;42.71
57900;BME280;60605;53.716;19.940;2023-05-02T13:00:20;100409.67;;;20.46;43.50
57900;BME280;60605;53.716;19.940;2023-05-02T13:05:23;100410.06;;;20.40;43.77
57900;BME280;60605;53.716;19.940;2023-05-02T13:10:27;100414.97;;;20.44;43.89
57900;BME280;60605;53.716;19.940;2023-05-02T13:15:31;100420.58;;;20.44;44.17
57900;BME280;60605;53.716;19.940;2023-05-02T13:20:34;100429.59;;;20.25;44.73
57900;BME280;60605;53.716;19.940;2023-05-02T13:25:37;100438.20;;;19.86;45.62
57900;BME280;60605;53.716;19.940;2023-05-02T13:30:40;100455.52;;;19.37;45.77
57900;BME280;60605;53.716;19.940;2023-05-02T13:35:44;100466.51;;;18.83;45.92
57900;BME280;60605;53.716;19.940;2023-05-02T13:40:47;100474.02;;;18.33;46.90
57900;BME280;60605;53.716;19.940;2023-05-02T13:45:50;100478.20;;;17.92;48.21
57900;BME280;60605;53.716;19.940;2023-05-02T13:50:54;100484.48;;;17.87;49.49
57900;BME280;60605;53.716;19.940;2023-05-02T13:55:57;100493.80;;;18.10;49.76
57900;BME280;60605;53.716;19.940;2023-05-02T14:01:01;100506.09;;;18.34;49.55
57900;BME280;60605;53.716;19.940;2023-05-02T14:06:04;100525.25;;;18.38;49.64
57900;BME280;60605;53.716;19.940;2023-05-02T14:11:08;100541.45;;;18.32;50.52
57900;BME280;60605;53.716;19.940;2023-05-02T14:16:11;100548.93;;;18.24;52.31
57900;BME280;60605;53.716;19.940;2023-05-02T14:21:15;100560.39;;;18.07;53.72
57900;BME280;60605;53.716;19.940;2023-05-02T14:26:18;100572.73;;;17.68;55.69
57900;BME280;60605;53.716;19.940;2023-05-02T14:31:22;100582.70;;;17.32;57.17
57900;BME280;60605;53.716;19.940;2023-05-02T14:36:25;100602.41;;;17.01;58.53
57900;BME280;60605;53.716;19.940;2023-05-02T14:41:29;100616.29;;;16.72;59.52
57900;BME280;60605;53.716;19.940;2023-05-02T14:46:35;100623.09;;;16.45;60.31
57900;BME280;60605;53.716;19.940;2023-05-02T14:51:38;100637.10;;;16.06;61.20
57900;BME280;60605;53.716;19.940;2023-05-02T14:56:42;100644.11;;;15.74;62.15
57900;BME280;60605;53.716;19.940;2023-05-02T15:01:45;100653.96;;;15.51;62.94
57900;BME280;60605;53.716;19.940;2023-05-02T15:06:50;100660.39;;;15.12;63.85
57900;BME280;60605;53.716;19.940;2023-05-02T15:11:56;100668.33;;;14.43;65.66
57900;BME280;60605;53.716;19.940;2023-05-02T15:17:00;100684.51;;;13.82;67.85
57900;BME280;60605;53.716;19.940;2023-05-02T15:22:03;100698.11;;;13.34;69.74
57900;BME280;60605;53.716;19.940;2023-05-02T15:27:06;100709.36;;;12.90;70.61
57900;BME280;60605;53.716;19.940;2023-05-02T15:32:11;100714.77;;;12.67;71.72
57900;BME280;60605;53.716;19.940;2023-05-02T15:37:14;100720.55;;;12.42;72.41
57900;BME280;60605;53.716;19.940;2023-05-02T15:42:17;100729.52;;;12.19;73.15
57900;BME280;60605;53.716;19.940;2023-05-02T15:47:20;100736.55;;;12.01;73.71
57900;BME280;60605;53.716;19.940;2023-05-02T15:52:24;100739.44;;;11.91;74.44
57900;BME280;60605;53.716;19.940;2023-05-02T15:57:28;100738.47;;;11.78;75.01
57900;BME280;60605;53.716;19.940;2023-05-02T16:02:31;100747.81;;;11.68;75.43
57900;BME280;60605;53.716;19.940;2023-05-02T16:07:36;100755.04;;;11.64;75.46
57900;BME280;60605;53.716;19.940;2023-05-02T16:12:40;100765.20;;;11.62;75.54
57900;BME280;60605;53.716;19.940;2023-05-02T16:17:43;100772.89;;;11.55;75.38
57900;BME280;60605;53.716;19.940;2023-05-02T16:22:47;100771.34;;;11.49;75.28
57900;BME280;60605;53.716;19.940;2023-05-02T16:27:50;100776.94;;;11.52;75.28
57900;BME280;60605;53.716;19.940;2023-05-02T16:32:53;100785.87;;;11.52;75.19
57900;BME280;60605;53.716;19.940;2023-05-02T16:37:56;100791.41;;;11.39;75.47
57900;BME280;60605;53.716;19.940;2023-05-02T16:42:59;100792.65;;;11.28;75.87
57900;BME280;60605;53.716;19.940;2023-05-02T16:48:03;100796.78;;;11.20;75.94
57900;BME280;60605;53.716;19.940;2023-05-02T16:53:07;100799.08;;;11.13;76.03
57900;BME280;60605;53.716;19.940;2023-05-02T16:58:10;100807.13;;;11.13;76.19
57900;BME280;60605;53.716;19.940;2023-05-02T17:03:12;100820.12;;;11.21;75.76
57900;BME280;60605;53.716;19.940;2023-05-02T17:08:16;100827.08;;;11.34;75.40
57900;BME280;60605;53.716;19.940;2023-05-02T17:13:19;100821.53;;;11.46;74.54
57900;BME280;60605;53.716;19.940;2023-05-02T17:18:22;100823.38;;;11.55;74.05
57900;BME280;60605;53.716;19.940;2023-05-02T17:23:29;100825.71;;;11.60;73.31
57900;BME280;60605;53.716;19.940;2023-05-02T17:28:32;100826.88;;;11.55;72.89
57900;BME280;60605;53.716;19.940;2023-05-02T17:33:35;100828.73;;;11.45;72.58
57900;BME280;60605;53.716;19.940;2023-05-02T17:38:39;100833.88;;;11.19;72.15
57900;BME280;60605;53.716;19.940;2023-05-02T17:43:43;100835.80;;;10.97;72.49
57900;BME280;60605;53.716;19.940;2023-05-02T17:48:46;100844.27;;;10.77;72.74
57900;BME280;60605;53.716;19.940;2023-05-02T17:53:51;100859.42;;;10.56;73.13
57900;BME280;60605;53.716;19.940;2023-05-02T17:58:54;100872.58;;;10.37;73.51
57900;BME280;60605;53.716;19.940;2023-05-02T18:03:58;100875.21;;;10.20;74.05
57900;BME280;60605;53.716;19.940;2023-05-02T18:09:02;100876.89;;;10.03;74.90
57900;BME280;60605;53.716;19.940;2023-05-02T18:14:05;100887.38;;;9.89;75.29
57900;BME280;60605;53.716;19.940;2023-05-02T18:19:08;100900.70;;;9.78;75.95
57900;BME280;60605;53.716;19.940;2023-05-02T18:24:12;100902.97;;;9.68;76.56
57900;BME280;60605;53.716;19.940;2023-05-02T18:29:15;100908.77;;;9.63;76.68
57900;BME280;60605;53.716;19.940;2023-05-02T18:34:19;100911.66;;;9.60;76.43
57900;BME280;60605;53.716;19.940;2023-05-02T18:39:22;100908.52;;;9.55;75.91
57900;BME280;60605;53.716;19.940;2023-05-02T18:44:26;100909.19;;;9.50;76.04
57900;BME280;60605;53.716;19.940;2023-05-02T18:49:29;100914.64;;;9.42;75.86
57900;BME280;60605;53.716;19.940;2023-05-02T18:54:33;100930.77;;;9.35;74.73
57900;BME280;60605;53.716;19.940;2023-05-02T18:59:36;100940.50;;;9.28;73.56
57900;BME280;60605;53.716;19.940;2023-05-02T19:04:39;100947.35;;;9.20;73.21
57900;BME280;60605;53.716;19.940;2023-05-02T19:09:42;100949.30;;;9.14;73.33
57900;BME280;60605;53.716;19.940;2023-05-02T19:14:46;100953.43;;;9.08;72.59
57900;BME280;60605;53.716;19.940;2023-05-02T19:19:53;100961.83;;;9.01;72.10
57900;BME280;60605;53.716;19.940;2023-05-02T19:24:59;100975.31;;;8.95;72.07
57900;BME280;60605;53.716;19.940;2023-05-02T19:30:03;100973.64;;;8.91;72.19
57900;BME280;60605;53.716;19.940;2023-05-02T19:35:07;100980.86;;;8.88;72.42
57900;BME280;60605;53.716;19.940;2023-05-02T19:40:11;100989.74;;;8.86;72.57
57900;BME280;60605;53.716;19.940;2023-05-02T19:45:16;100993.73;;;8.83;72.89
57900;BME280;60605;53.716;19.940;2023-05-02T19:50:20;100991.08;;;8.79;73.22
57900;BME280;60605;53.716;19.940;2023-05-02T19:55:24;100991.19;;;8.75;73.26
57900;BME280;60605;53.716;19.940;2023-05-02T20:00:27;100998.96;;;8.69;72.67
57900;BME280;60605;53.716;19.940;2023-05-02T20:05:31;101011.41;;;8.63;72.90
57900;BME280;60605;53.716;19.940;2023-05-02T20:10:34;101013.60;;;8.58;72.94
57900;BME280;60605;53.716;19.940;2023-05-02T20:15:38;101012.38;;;8.51;72.77
57900;BME280;60605;53.716;19.940;2023-05-02T20:20:42;101011.73;;;8.41;72.71
57900;BME280;60605;53.716;19.940;2023-05-02T20:25:45;101013.48;;;8.30;72.85
57900;BME280;60605;53.716;19.940;2023-05-02T20:30:48;101022.27;;;8.18;73.07
57900;BME280;60605;53.716;19.940;2023-05-02T20:35:52;101026.63;;;8.05;73.46
57900;BME280;60605;53.716;19.940;2023-05-02T20:40:56;101030.98;;;7.93;73.90
57900;BME280;60605;53.716;19.940;2023-05-02T20:46:06;101035.50;;;7.81;74.35
57900;BME280;60605;53.716;19.940;2023-05-02T20:51:10;101035.29;;;7.67;74.62
57900;BME280;60605;53.716;19.940;2023-05-02T20:56:13;101042.03;;;7.53;74.78
57900;BME280;60605;53.716;19.940;2023-05-02T21:01:17;101046.48;;;7.37;74.87
57900;BME280;60605;53.716;19.940;2023-05-02T21:06:21;101050.88;;;7.18;75.36
57900;BME280;60605;53.716;19.940;2023-05-02T21:11:24;101056.33;;;6.95;75.90
57900;BME280;60605;53.716;19.940;2023-05-02T21:16:28;101062.55;;;6.73;76.43
57900;BME280;60605;53.716;19.940;2023-05-02T21:21:31;101063.77;;;6.48;76.96
57900;BME280;60605;53.716;19.940;2023-05-02T21:26:35;101064.97;;;6.24;77.49
57900;BME280;60605;53.716;19.940;2023-05-02T21:31:38;101065.39;;;5.99;78.14
57900;BME280;60605;53.716;19.940;2023-05-02T21:36:41;101066.52;;;5.78;78.77
57900;BME280;60605;53.716;19.940;2023-05-02T21:41:45;101067.23;;;5.59;79.40
57900;BME280;60605;53.716;19.940;2023-05-02T21:46:49;101075.59;;;5.42;80.02
57900;BME280;60605;53.716;19.940;2023-05-02T21:51:52;101078.55;;;5.27;80.68
57900;BME280;60605;53.716;19.940;2023-05-02T21:56:55;101080.89;;;5.16;81.54
57900;BME280;60605;53.716;19.940;2023-05-02T22:01:58;101082.66;;;5.08;81.86
57900;BME280;60605;53.716;19.940;2023-05-02T22:07:02;101091.24;;;5.01;82.31
57900;BME280;60605;53.716;19.940;2023-05-02T22:12:05;101093.80;;;4.94;82.66
57900;BME280;60605;53.716;19.940;2023-05-02T22:17:08;101096.35;;;4.85;82.95
57900;BME280;60605;53.716;19.940;2023-05-02T22:22:12;101095.79;;;4.71;83.08
57900;BME280;60605;53.716;19.940;2023-05-02T22:27:15;101099.48;;;4.55;83.29
57900;BME280;60605;53.716;19.940;2023-05-02T22:32:19;101105.56;;;4.37;83.59
57900;BME280;60605;53.716;19.940;2023-05-02T22:37:24;101104.98;;;4.17;84.48
57900;BME280;60605;53.716;19.940;2023-05-02T22:42:27;101107.71;;;3.98;85.20
57900;BME280;60605;53.716;19.940;2023-05-02T22:47:31;101111.42;;;3.81;86.08
57900;BME280;60605;53.716;19.940;2023-05-02T22:52:34;101113.24;;;3.67;87.08
57900;BME280;60605;53.716;19.940;2023-05-02T22:57:39;101115.92;;;3.55;87.54
57900;BME280;60605;53.716;19.940;2023-05-02T23:02:42;101118.59;;;3.42;88.03
57900;BME280;60605;53.716;19.940;2023-05-02T23:07:47;101118.52;;;3.28;88.22
57900;BME280;60605;53.716;19.940;2023-05-02T23:12:50;101120.42;;;3.13;88.57
57900;BME280;60605;53.716;19.940;2023-05-02T23:17:53;101122.81;;;2.99;89.04
57900;BME280;60605;53.716;19.940;2023-05-02T23:22:56;101125.25;;;2.87;90.00
57900;BME280;60605;53.716;19.940;2023-05-02T23:28:00;101127.46;;;2.78;90.66
57900;BME280;60605;53.716;19.940;2023-05-02T23:33:03;101126.48;;;2.67;90.75
57900;BME280;60605;53.716;19.940;2023-05-02T23:38:06;101127.01;;;2.58;91.44
57900;BME280;60605;53.716;19.940;2023-05-02T23:43:12;101124.25;;;2.53;92.44
57900;BME280;60605;53.716;19.940;2023-05-02T23:48:15;101128.02;;;2.49;92.91
57900;BME280;60605;53.716;19.940;2023-05-02T23:53:18;101126.91;;;2.40;92.68
57900;BME280;60605;53.716;19.940;2023-05-02T23:58:21;101131.94;;;2.31;93.02
